sensor_id;sensor_type;location;lat;lon;timestamp;P1;durP1;ratioP1;P2;durP2;ratioP2
6336;SDS011;3201;49.962;11.618;2022-10-13T00:00:14;3.30;;;3.00;;
6336;SDS011;3201;49.962;11.618;2022-10-13T00:02:39;3.17;;;2.70;;
6336;SDS011;3201;49.962;11.618;2022-10-13T00:05:05;2.53;;;2.33;;
6336;SDS011;3201;49.962;11.618;2022-10-13T00:07:30;2.43;;;2.23;;
6336;SDS011;3201;49.962;11.618;2022-10-13T00:09:55;3.70;;;2.30;;
6336;SDS011;3201;49.962;11.618;2022-10-13T00:12:21;2.93;;;2.63;;
6336;SDS011;3201;49.962;11.618;2022-10-13T00:14:46;2.70;;;2.50;;
6336;SDS011;3201;49.962;11.618;2022-10-13T00:17:11;3.00;;;2.70;;
6336;SDS011;3201;49.962;11.618;2022-10-13T00:19:37;5.17;;;3.20;;
6336;SDS011;3201;49.962;11.618;2022-10-13T00:22:02;2.87;;;2.63;;
6336;SDS011;3201;49.962;11.618;2022-10-13T00:24:27;2.50;;;2.30;;
6336;SDS011;3201;49.962;11.618;2022-10-13T00:26:53;2.40;;;2.20;;
6336;SDS011;3201;49.962;11.618;2022-10-13T00:29:18;2.87;;;2.57;;
6336;SDS011;3201;49.962;11.618;2022-10-13T00:31:44;4.83;;;3.23;;
6336;SDS011;3201;49.962;11.618;2022-10-13T00:34:09;2.63;;;2.33;;
6336;SDS011;3201;49.962;11.618;2022-10-13T00:36:35;4.27;;;2.33;;
6336;SDS011;3201;49.962;11.618;2022-10-13T00:39:00;3.17;;;2.73;;
6336;SDS011;3201;49.962;11.618;2022-10-13T00:41:25;2.23;;;1.87;;
6336;SDS011;3201;49.962;11.618;2022-10-13T00:43:53;2.90;;;2.70;;
6336;SDS011;3201;49.962;11.618;2022-10-13T00:46:22;3.77;;;2.73;;
6336;SDS011;3201;49.962;11.618;2022-10-13T00:48:49;3.37;;;2.47;;
6336;SDS011;3201;49.962;11.618;2022-10-13T00:51:16;2.60;;;2.33;;
6336;SDS011;3201;49.962;11.618;2022-10-13T00:53:43;3.57;;;2.93;;
6336;SDS011;3201;49.962;11.618;2022-10-13T00:56:09;2.67;;;2.40;;
6336;SDS011;3201;49.962;11.618;2022-10-13T00:58:36;3.03;;;2.70;;
6336;SDS011;3201;49.962;11.618;2022-10-13T01:01:01;3.60;;;2.87;;
6336;SDS011;3201;49.962;11.618;2022-10-13T01:03:28;3.17;;;2.50;;
6336;SDS011;3201;49.962;11.618;2022-10-13T01:05:54;3.30;;;3.00;;
6336;SDS011;3201;49.962;11.618;2022-10-13T01:08:22;2.90;;;2.70;;
6336;SDS011;3201;49.962;11.618;2022-10-13T01:11:24;2.87;;;2.67;;
6336;SDS011;3201;49.962;11.618;2022-10-13T01:23:16;2.80;;;2.50;;
6336;SDS011;3201;49.962;11.618;2022-10-13T01:25:24;4.07;;;2.87;;
6336;SDS011;3201;49.962;11.618;2022-10-13T01:28:16;4.13;;;2.50;;
6336;SDS011;3201;49.962;11.618;2022-10-13T01:30:51;3.40;;;2.83;;
6336;SDS011;3201;49.962;11.618;2022-10-13T01:36:15;2.83;;;2.47;;
6336;SDS011;3201;49.962;11.618;2022-10-13T01:38:50;3.77;;;2.80;;
6336;SDS011;3201;49.962;11.618;2022-10-13T01:41:23;5.57;;;2.93;;
6336;SDS011;3201;49.962;11.618;2022-10-13T01:46:40;2.73;;;2.53;;
6336;SDS011;3201;49.962;11.618;2022-10-13T01:49:07;3.57;;;2.67;;
6336;SDS011;3201;49.962;11.618;2022-10-13T01:51:35;3.00;;;2.30;;
6336;SDS011;3201;49.962;11.618;2022-10-13T01:54:01;3.17;;;2.87;;
6336;SDS011;3201;49.962;11.618;2022-10-13T01:56:26;5.57;;;2.57;;
6336;SDS011;3201;49.962;11.618;2022-10-13T01:58:52;4.33;;;2.67;;
6336;SDS011;3201;49.962;11.618;2022-10-13T02:01:21;3.17;;;2.87;;
6336;SDS011;3201;49.962;11.618;2022-10-13T02:08:00;3.13;;;2.83;;
6336;SDS011;3201;49.962;11.618;2022-10-13T02:12:23;3.33;;;3.03;;
6336;SDS011;3201;49.962;11.618;2022-10-13T02:14:53;2.53;;;2.33;;
6336;SDS011;3201;49.962;11.618;2022-10-13T02:17:21;3.20;;;2.13;;
6336;SDS011;3201;49.962;11.618;2022-10-13T02:19:46;4.07;;;2.63;;
6336;SDS011;3201;49.962;11.618;2022-10-13T02:22:12;4.03;;;3.03;;
6336;SDS011;3201;49.962;11.618;2022-10-13T02:24:39;3.07;;;2.77;;
6336;SDS011;3201;49.962;11.618;2022-10-13T02:27:05;3.23;;;2.70;;
6336;SDS011;3201;49.962;11.618;2022-10-13T02:29:30;3.10;;;2.90;;
6336;SDS011;3201;49.962;11.618;2022-10-13T02:31:56;3.17;;;2.50;;
6336;SDS011;3201;49.962;11.618;2022-10-13T02:34:22;4.03;;;3.63;;
6336;SDS011;3201;49.962;11.618;2022-10-13T02:36:47;3.60;;;2.73;;
6336;SDS011;3201;49.962;11.618;2022-10-13T02:39:13;4.47;;;2.90;;
6336;SDS011;3201;49.962;11.618;2022-10-13T02:41:38;3.40;;;2.70;;
6336;SDS011;3201;49.962;11.618;2022-10-13T02:44:04;3.23;;;2.33;;
6336;SDS011;3201;49.962;11.618;2022-10-13T02:46:30;2.63;;;2.43;;
6336;SDS011;3201;49.962;11.618;2022-10-13T02:48:55;2.67;;;2.43;;
6336;SDS011;3201;49.962;11.618;2022-10-13T02:51:21;3.40;;;3.10;;
6336;SDS011;3201;49.962;11.618;2022-10-13T02:53:46;3.73;;;2.90;;
6336;SDS011;3201;49.962;11.618;2022-10-13T02:56:12;3.97;;;2.97;;
6336;SDS011;3201;49.962;11.618;2022-10-13T02:58:37;3.37;;;3.07;;
6336;SDS011;3201;49.962;11.618;2022-10-13T03:01:04;3.27;;;2.97;;
6336;SDS011;3201;49.962;11.618;2022-10-13T03:03:34;3.03;;;2.73;;
6336;SDS011;3201;49.962;11.618;2022-10-13T03:06:00;3.53;;;3.20;;
6336;SDS011;3201;49.962;11.618;2022-10-13T03:08:25;3.40;;;3.10;;
6336;SDS011;3201;49.962;11.618;2022-10-13T03:10:51;5.30;;;2.80;;
6336;SDS011;3201;49.962;11.618;2022-10-13T03:13:16;4.87;;;2.97;;
6336;SDS011;3201;49.962;11.618;2022-10-13T03:15:41;3.77;;;3.40;;
6336;SDS011;3201;49.962;11.618;2022-10-13T03:18:07;3.77;;;3.33;;
6336;SDS011;3201;49.962;11.618;2022-10-13T03:20:32;3.17;;;2.97;;
6336;SDS011;3201;49.962;11.618;2022-10-13T03:22:57;3.13;;;2.73;;
6336;SDS011;3201;49.962;11.618;2022-10-13T03:25:23;3.80;;;3.23;;
6336;SDS011;3201;49.962;11.618;2022-10-13T03:27:48;2.90;;;2.50;;
6336;SDS011;3201;49.962;11.618;2022-10-13T03:30:13;3.10;;;2.80;;
6336;SDS011;3201;49.962;11.618;2022-10-13T03:32:39;3.40;;;2.70;;
6336;SDS011;3201;49.962;11.618;2022-10-13T03:35:05;4.13;;;2.77;;
6336;SDS011;3201;49.962;11.618;2022-10-13T03:37:30;3.27;;;2.87;;
6336;SDS011;3201;49.962;11.618;2022-10-13T03:39:56;3.43;;;3.13;;
6336;SDS011;3201;49.962;11.618;2022-10-13T03:42:21;5.10;;;2.70;;
6336;SDS011;3201;49.962;11.618;2022-10-13T03:44:47;2.90;;;2.60;;
6336;SDS011;3201;49.962;11.618;2022-10-13T03:47:13;3.37;;;2.70;;
6336;SDS011;3201;49.962;11.618;2022-10-13T03:49:38;3.00;;;2.70;;
6336;SDS011;3201;49.962;11.618;2022-10-13T03:52:04;3.57;;;3.23;;
6336;SDS011;3201;49.962;11.618;2022-10-13T03:54:29;3.57;;;2.80;;
6336;SDS011;3201;49.962;11.618;2022-10-13T03:56:55;4.70;;;3.20;;
6336;SDS011;3201;49.962;11.618;2022-10-13T03:59:20;2.73;;;2.50;;
6336;SDS011;3201;49.962;11.618;2022-10-13T04:01:45;2.83;;;2.53;;
6336;SDS011;3201;49.962;11.618;2022-10-13T04:04:11;3.83;;;3.17;;
6336;SDS011;3201;49.962;11.618;2022-10-13T04:06:37;3.80;;;3.10;;
6336;SDS011;3201;49.962;11.618;2022-10-13T04:09:03;3.27;;;2.97;;
6336;SDS011;3201;49.962;11.618;2022-10-13T04:11:28;2.83;;;2.60;;
6336;SDS011;3201;49.962;11.618;2022-10-13T04:13:55;3.10;;;2.87;;
6336;SDS011;3201;49.962;11.618;2022-10-13T04:16:22;3.27;;;2.97;;
6336;SDS011;3201;49.962;11.618;2022-10-13T04:18:50;3.70;;;2.70;;
6336;SDS011;3201;49.962;11.618;2022-10-13T04:21:17;4.20;;;3.10;;
6336;SDS011;3201;49.962;11.618;2022-10-13T04:23:43;2.70;;;2.50;;
6336;SDS011;3201;49.962;11.618;2022-10-13T04:26:13;5.37;;;2.93;;
6336;SDS011;3201;49.962;11.618;2022-10-13T04:28:44;3.20;;;2.90;;
6336;SDS011;3201;49.962;11.618;2022-10-13T04:31:11;3.87;;;3.00;;
6336;SDS011;3201;49.962;11.618;2022-10-13T04:33:36;3.07;;;2.63;;
6336;SDS011;3201;49.962;11.618;2022-10-13T04:36:03;3.40;;;2.50;;
6336;SDS011;3201;49.962;11.618;2022-10-13T04:38:29;3.10;;;2.80;;
6336;SDS011;3201;49.962;11.618;2022-10-13T04:40:54;4.87;;;2.97;;
6336;SDS011;3201;49.962;11.618;2022-10-13T04:43:20;3.40;;;3.10;;
6336;SDS011;3201;49.962;11.618;2022-10-13T04:45:45;4.07;;;3.13;;
6336;SDS011;3201;49.962;11.618;2022-10-13T04:48:10;3.40;;;3.10;;
6336;SDS011;3201;49.962;11.618;2022-10-13T04:50:36;2.93;;;2.60;;
6336;SDS011;3201;49.962;11.618;2022-10-13T04:53:01;3.40;;;2.50;;
6336;SDS011;3201;49.962;11.618;2022-10-13T04:55:27;4.10;;;2.83;;
6336;SDS011;3201;49.962;11.618;2022-10-13T04:57:52;3.07;;;2.63;;
6336;SDS011;3201;49.962;11.618;2022-10-13T05:00:17;3.13;;;2.83;;
6336;SDS011;3201;49.962;11.618;2022-10-13T05:02:43;3.87;;;2.90;;
6336;SDS011;3201;49.962;11.618;2022-10-13T05:05:08;3.23;;;2.93;;
6336;SDS011;3201;49.962;11.618;2022-10-13T05:07:34;3.70;;;3.23;;
6336;SDS011;3201;49.962;11.618;2022-10-13T05:09:59;2.90;;;2.60;;
6336;SDS011;3201;49.962;11.618;2022-10-13T05:12:25;6.77;;;2.40;;
6336;SDS011;3201;49.962;11.618;2022-10-13T05:14:50;3.33;;;2.90;;
6336;SDS011;3201;49.962;11.618;2022-10-13T05:17:15;3.00;;;2.40;;
6336;SDS011;3201;49.962;11.618;2022-10-13T05:19:41;3.00;;;2.70;;
6336;SDS011;3201;49.962;11.618;2022-10-13T05:22:06;3.83;;;2.43;;
6336;SDS011;3201;49.962;11.618;2022-10-13T05:24:32;3.23;;;2.80;;
6336;SDS011;3201;49.962;11.618;2022-10-13T05:27:04;3.17;;;2.87;;
6336;SDS011;3201;49.962;11.618;2022-10-13T05:29:31;3.17;;;2.60;;
6336;SDS011;3201;49.962;11.618;2022-10-13T05:31:56;4.00;;;2.97;;
6336;SDS011;3201;49.962;11.618;2022-10-13T05:34:21;2.50;;;2.30;;
6336;SDS011;3201;49.962;11.618;2022-10-13T05:36:47;2.53;;;2.33;;
6336;SDS011;3201;49.962;11.618;2022-10-13T05:39:12;3.10;;;2.83;;
6336;SDS011;3201;49.962;11.618;2022-10-13T05:41:38;4.03;;;3.60;;
6336;SDS011;3201;49.962;11.618;2022-10-13T05:44:05;4.43;;;2.57;;
6336;SDS011;3201;49.962;11.618;2022-10-13T05:46:32;2.90;;;2.60;;
6336;SDS011;3201;49.962;11.618;2022-10-13T05:48:57;3.03;;;2.73;;
6336;SDS011;3201;49.962;11.618;2022-10-13T05:51:23;3.03;;;2.73;;
6336;SDS011;3201;49.962;11.618;2022-10-13T05:53:52;4.10;;;2.40;;
6336;SDS011;3201;49.962;11.618;2022-10-13T05:56:20;2.63;;;2.40;;
6336;SDS011;3201;49.962;11.618;2022-10-13T05:58:49;2.40;;;2.20;;
6336;SDS011;3201;49.962;11.618;2022-10-13T06:01:17;2.87;;;2.50;;
6336;SDS011;3201;49.962;11.618;2022-10-13T06:03:45;3.70;;;2.93;;
6336;SDS011;3201;49.962;11.618;2022-10-13T06:06:10;3.43;;;2.73;;
6336;SDS011;3201;49.962;11.618;2022-10-13T06:08:36;2.93;;;2.67;;
6336;SDS011;3201;49.962;11.618;2022-10-13T06:11:02;3.03;;;2.47;;
6336;SDS011;3201;49.962;11.618;2022-10-13T06:13:28;2.70;;;2.43;;
6336;SDS011;3201;49.962;11.618;2022-10-13T06:15:54;2.60;;;2.40;;
6336;SDS011;3201;49.962;11.618;2022-10-13T06:18:19;4.60;;;2.73;;
6336;SDS011;3201;49.962;11.618;2022-10-13T06:20:45;2.67;;;2.47;;
6336;SDS011;3201;49.962;11.618;2022-10-13T06:23:10;3.20;;;2.90;;
6336;SDS011;3201;49.962;11.618;2022-10-13T06:25:36;2.70;;;2.50;;
6336;SDS011;3201;49.962;11.618;2022-10-13T06:28:01;3.40;;;2.47;;
6336;SDS011;3201;49.962;11.618;2022-10-13T06:30:27;4.67;;;2.60;;
6336;SDS011;3201;49.962;11.618;2022-10-13T06:32:53;3.13;;;2.83;;
6336;SDS011;3201;49.962;11.618;2022-10-13T06:35:20;2.77;;;2.57;;
6336;SDS011;3201;49.962;11.618;2022-10-13T06:37:46;3.30;;;2.27;;
6336;SDS011;3201;49.962;11.618;2022-10-13T06:40:13;6.50;;;2.20;;
6336;SDS011;3201;49.962;11.618;2022-10-13T06:42:39;4.63;;;2.30;;
6336;SDS011;3201;49.962;11.618;2022-10-13T06:45:04;5.00;;;2.87;;
6336;SDS011;3201;49.962;11.618;2022-10-13T06:47:30;3.30;;;2.70;;
6336;SDS011;3201;49.962;11.618;2022-10-13T06:49:55;2.70;;;2.40;;
6336;SDS011;3201;49.962;11.618;2022-10-13T06:52:21;4.37;;;2.73;;
6336;SDS011;3201;49.962;11.618;2022-10-13T06:54:46;5.83;;;3.83;;
6336;SDS011;3201;49.962;11.618;2022-10-13T06:57:12;7.80;;;2.70;;
6336;SDS011;3201;49.962;11.618;2022-10-13T06:59:37;7.10;;;3.57;;
6336;SDS011;3201;49.962;11.618;2022-10-13T07:02:03;8.93;;;3.00;;
6336;SDS011;3201;49.962;11.618;2022-10-13T07:04:28;4.43;;;2.97;;
6336;SDS011;3201;49.962;11.618;2022-10-13T07:06:53;5.30;;;2.60;;
6336;SDS011;3201;49.962;11.618;2022-10-13T07:09:19;7.00;;;3.30;;
6336;SDS011;3201;49.962;11.618;2022-10-13T07:11:44;7.90;;;3.50;;
6336;SDS011;3201;49.962;11.618;2022-10-13T07:14:11;3.63;;;2.73;;
6336;SDS011;3201;49.962;11.618;2022-10-13T07:16:37;7.70;;;3.00;;
6336;SDS011;3201;49.962;11.618;2022-10-13T07:19:02;3.17;;;2.87;;
6336;SDS011;3201;49.962;11.618;2022-10-13T07:21:28;12.93;;;2.80;;
6336;SDS011;3201;49.962;11.618;2022-10-13T07:23:53;4.97;;;2.90;;
6336;SDS011;3201;49.962;11.618;2022-10-13T07:26:19;4.43;;;3.30;;
6336;SDS011;3201;49.962;11.618;2022-10-13T07:28:44;4.30;;;2.57;;
6336;SDS011;3201;49.962;11.618;2022-10-13T07:31:12;2.93;;;2.63;;
6336;SDS011;3201;49.962;11.618;2022-10-13T07:33:40;5.10;;;2.50;;
6336;SDS011;3201;49.962;11.618;2022-10-13T07:36:06;3.20;;;2.60;;
6336;SDS011;3201;49.962;11.618;2022-10-13T07:38:32;3.93;;;2.73;;
6336;SDS011;3201;49.962;11.618;2022-10-13T07:40:59;5.10;;;2.73;;
6336;SDS011;3201;49.962;11.618;2022-10-13T07:43:26;11.07;;;3.27;;
6336;SDS011;3201;49.962;11.618;2022-10-13T07:45:52;4.70;;;2.87;;
6336;SDS011;3201;49.962;11.618;2022-10-13T07:48:17;3.00;;;2.47;;
6336;SDS011;3201;49.962;11.618;2022-10-13T07:50:42;4.10;;;3.57;;
6336;SDS011;3201;49.962;11.618;2022-10-13T07:53:08;6.33;;;2.23;;
6336;SDS011;3201;49.962;11.618;2022-10-13T07:55:33;7.00;;;2.67;;
6336;SDS011;3201;49.962;11.618;2022-10-13T07:58:00;6.10;;;2.77;;
6336;SDS011;3201;49.962;11.618;2022-10-13T08:00:26;7.00;;;2.93;;
6336;SDS011;3201;49.962;11.618;2022-10-13T08:02:52;4.40;;;2.40;;
6336;SDS011;3201;49.962;11.618;2022-10-13T08:05:17;9.17;;;2.70;;
6336;SDS011;3201;49.962;11.618;2022-10-13T08:07:42;6.30;;;2.63;;
6336;SDS011;3201;49.962;11.618;2022-10-13T08:10:08;4.93;;;2.90;;
6336;SDS011;3201;49.962;11.618;2022-10-13T08:12:34;6.30;;;2.90;;
6336;SDS011;3201;49.962;11.618;2022-10-13T08:15:00;6.40;;;2.70;;
6336;SDS011;3201;49.962;11.618;2022-10-13T08:17:25;5.20;;;2.47;;
6336;SDS011;3201;49.962;11.618;2022-10-13T08:19:51;3.90;;;3.10;;
6336;SDS011;3201;49.962;11.618;2022-10-13T08:22:16;7.43;;;3.13;;
6336;SDS011;3201;49.962;11.618;2022-10-13T08:24:42;5.30;;;2.87;;
6336;SDS011;3201;49.962;11.618;2022-10-13T08:27:09;8.57;;;3.13;;
6336;SDS011;3201;49.962;11.618;2022-10-13T08:29:43;5.17;;;2.80;;
6336;SDS011;3201;49.962;11.618;2022-10-13T08:32:09;6.40;;;2.70;;
6336;SDS011;3201;49.962;11.618;2022-10-13T08:34:34;5.10;;;2.80;;
6336;SDS011;3201;49.962;11.618;2022-10-13T08:37:00;6.33;;;3.20;;
6336;SDS011;3201;49.962;11.618;2022-10-13T08:39:26;5.83;;;2.93;;
6336;SDS011;3201;49.962;11.618;2022-10-13T08:41:52;3.47;;;2.90;;
6336;SDS011;3201;49.962;11.618;2022-10-13T08:44:22;6.47;;;2.87;;
6336;SDS011;3201;49.962;11.618;2022-10-13T08:46:53;4.60;;;3.07;;
6336;SDS011;3201;49.962;11.618;2022-10-13T08:49:23;4.33;;;2.70;;
6336;SDS011;3201;49.962;11.618;2022-10-13T08:51:49;9.03;;;3.67;;
6336;SDS011;3201;49.962;11.618;2022-10-13T08:54:14;6.93;;;3.30;;
6336;SDS011;3201;49.962;11.618;2022-10-13T08:56:42;5.00;;;2.83;;
6336;SDS011;3201;49.962;11.618;2022-10-13T08:59:09;3.53;;;2.50;;
6336;SDS011;3201;49.962;11.618;2022-10-13T09:01:38;7.33;;;3.30;;
6336;SDS011;3201;49.962;11.618;2022-10-13T09:04:38;4.30;;;3.10;;
6336;SDS011;3201;49.962;11.618;2022-10-13T09:07:05;8.00;;;2.43;;
6336;SDS011;3201;49.962;11.618;2022-10-13T09:09:36;7.53;;;3.47;;
6336;SDS011;3201;49.962;11.618;2022-10-13T09:12:03;5.97;;;2.73;;
6336;SDS011;3201;49.962;11.618;2022-10-13T09:14:31;3.53;;;2.67;;
6336;SDS011;3201;49.962;11.618;2022-10-13T09:17:17;8.00;;;2.87;;
6336;SDS011;3201;49.962;11.618;2022-10-13T09:19:56;4.77;;;2.40;;
6336;SDS011;3201;49.962;11.618;2022-10-13T09:22:25;6.17;;;2.90;;
6336;SDS011;3201;49.962;11.618;2022-10-13T09:25:15;5.47;;;2.80;;
6336;SDS011;3201;49.962;11.618;2022-10-13T09:27:45;3.60;;;3.13;;
6336;SDS011;3201;49.962;11.618;2022-10-13T09:30:22;5.57;;;2.50;;
6336;SDS011;3201;49.962;11.618;2022-10-13T09:35:36;8.13;;;2.67;;
6336;SDS011;3201;49.962;11.618;2022-10-13T09:38:05;3.30;;;2.17;;
6336;SDS011;3201;49.962;11.618;2022-10-13T09:40:32;5.67;;;2.80;;
6336;SDS011;3201;49.962;11.618;2022-10-13T09:42:59;3.83;;;2.73;;
6336;SDS011;3201;49.962;11.618;2022-10-13T09:45:26;8.53;;;2.53;;
6336;SDS011;3201;49.962;11.618;2022-10-13T09:47:52;3.53;;;2.80;;
6336;SDS011;3201;49.962;11.618;2022-10-13T09:50:21;5.03;;;2.60;;
6336;SDS011;3201;49.962;11.618;2022-10-13T09:52:48;5.43;;;2.27;;
6336;SDS011;3201;49.962;11.618;2022-10-13T09:55:45;6.03;;;2.50;;
6336;SDS011;3201;49.962;11.618;2022-10-13T09:58:17;5.67;;;2.60;;
6336;SDS011;3201;49.962;11.618;2022-10-13T10:00:47;6.70;;;2.90;;
6336;SDS011;3201;49.962;11.618;2022-10-13T10:03:15;4.90;;;2.70;;
6336;SDS011;3201;49.962;11.618;2022-10-13T10:05:52;10.80;;;2.67;;
6336;SDS011;3201;49.962;11.618;2022-10-13T10:08:48;6.50;;;2.37;;
6336;SDS011;3201;49.962;11.618;2022-10-13T10:11:12;4.17;;;2.93;;
6336;SDS011;3201;49.962;11.618;2022-10-13T10:13:40;4.33;;;2.70;;
6336;SDS011;3201;49.962;11.618;2022-10-13T10:16:17;3.57;;;2.60;;
6336;SDS011;3201;49.962;11.618;2022-10-13T10:18:48;2.53;;;2.30;;
6336;SDS011;3201;49.962;11.618;2022-10-13T10:21:22;4.90;;;2.63;;
6336;SDS011;3201;49.962;11.618;2022-10-13T10:26:39;7.90;;;2.70;;
6336;SDS011;3201;49.962;11.618;2022-10-13T10:29:12;3.20;;;2.63;;
6336;SDS011;3201;49.962;11.618;2022-10-13T10:31:53;4.27;;;2.83;;
6336;SDS011;3201;49.962;11.618;2022-10-13T10:37:13;8.57;;;2.60;;
6336;SDS011;3201;49.962;11.618;2022-10-13T10:45:18;3.13;;;2.30;;
6336;SDS011;3201;49.962;11.618;2022-10-13T10:47:46;4.13;;;2.23;;
6336;SDS011;3201;49.962;11.618;2022-10-13T10:50:16;4.67;;;2.40;;
6336;SDS011;3201;49.962;11.618;2022-10-13T10:55:16;3.30;;;2.30;;
6336;SDS011;3201;49.962;11.618;2022-10-13T11:00:20;6.53;;;2.40;;
6336;SDS011;3201;49.962;11.618;2022-10-13T11:03:03;2.33;;;2.13;;
6336;SDS011;3201;49.962;11.618;2022-10-13T11:06:20;3.40;;;2.40;;
6336;SDS011;3201;49.962;11.618;2022-10-13T11:08:25;2.90;;;2.10;;
6336;SDS011;3201;49.962;11.618;2022-10-13T11:16:33;4.87;;;2.67;;
6336;SDS011;3201;49.962;11.618;2022-10-13T11:19:03;3.00;;;2.30;;
6336;SDS011;3201;49.962;11.618;2022-10-13T11:24:56;6.37;;;2.43;;
6336;SDS011;3201;49.962;11.618;2022-10-13T11:38:09;2.93;;;2.20;;
6336;SDS011;3201;49.962;11.618;2022-10-13T11:45:29;7.53;;;2.97;;
6336;SDS011;3201;49.962;11.618;2022-10-13T11:51:06;4.27;;;2.50;;
6336;SDS011;3201;49.962;11.618;2022-10-13T11:53:22;6.53;;;2.93;;
6336;SDS011;3201;49.962;11.618;2022-10-13T11:55:51;5.57;;;2.80;;
6336;SDS011;3201;49.962;11.618;2022-10-13T12:01:03;9.37;;;3.17;;
6336;SDS011;3201;49.962;11.618;2022-10-13T12:03:31;11.43;;;3.03;;
6336;SDS011;3201;49.962;11.618;2022-10-13T12:06:01;7.50;;;3.13;;
6336;SDS011;3201;49.962;11.618;2022-10-13T12:08:29;3.60;;;3.13;;
6336;SDS011;3201;49.962;11.618;2022-10-13T12:10:56;9.13;;;3.00;;
6336;SDS011;3201;49.962;11.618;2022-10-13T12:13:25;5.67;;;2.80;;
6336;SDS011;3201;49.962;11.618;2022-10-13T12:16:00;9.60;;;2.67;;
6336;SDS011;3201;49.962;11.618;2022-10-13T12:18:30;9.97;;;3.43;;
6336;SDS011;3201;49.962;11.618;2022-10-13T12:21:00;7.50;;;3.60;;
6336;SDS011;3201;49.962;11.618;2022-10-13T12:23:27;10.70;;;2.80;;
6336;SDS011;3201;49.962;11.618;2022-10-13T12:25:53;9.00;;;3.33;;
6336;SDS011;3201;49.962;11.618;2022-10-13T12:28:24;6.33;;;3.10;;
6336;SDS011;3201;49.962;11.618;2022-10-13T12:30:52;6.33;;;3.03;;
6336;SDS011;3201;49.962;11.618;2022-10-13T12:33:25;5.67;;;3.33;;
6336;SDS011;3201;49.962;11.618;2022-10-13T12:35:52;9.43;;;3.37;;
6336;SDS011;3201;49.962;11.618;2022-10-13T12:38:18;8.63;;;3.43;;
6336;SDS011;3201;49.962;11.618;2022-10-13T12:40:46;5.37;;;2.87;;
6336;SDS011;3201;49.962;11.618;2022-10-13T12:43:15;7.33;;;4.10;;
6336;SDS011;3201;49.962;11.618;2022-10-13T12:45:43;10.87;;;3.30;;
6336;SDS011;3201;49.962;11.618;2022-10-13T12:48:27;5.57;;;3.57;;
6336;SDS011;3201;49.962;11.618;2022-10-13T12:50:53;9.97;;;3.20;;
6336;SDS011;3201;49.962;11.618;2022-10-13T12:53:22;7.23;;;3.10;;
6336;SDS011;3201;49.962;11.618;2022-10-13T12:58:21;10.20;;;3.13;;
6336;SDS011;3201;49.962;11.618;2022-10-13T13:01:25;9.60;;;3.13;;
6336;SDS011;3201;49.962;11.618;2022-10-13T13:03:43;8.70;;;3.27;;
6336;SDS011;3201;49.962;11.618;2022-10-13T13:06:18;6.87;;;3.10;;
6336;SDS011;3201;49.962;11.618;2022-10-13T13:08:46;11.43;;;3.50;;
6336;SDS011;3201;49.962;11.618;2022-10-13T13:11:32;9.33;;;3.83;;
6336;SDS011;3201;49.962;11.618;2022-10-13T13:15:16;8.03;;;4.23;;
6336;SDS011;3201;49.962;11.618;2022-10-13T13:19:49;5.80;;;3.43;;
6336;SDS011;3201;49.962;11.618;2022-10-13T13:22:16;13.37;;;4.00;;
6336;SDS011;3201;49.962;11.618;2022-10-13T13:24:42;12.00;;;4.13;;
6336;SDS011;3201;49.962;11.618;2022-10-13T13:27:13;8.67;;;4.37;;
6336;SDS011;3201;49.962;11.618;2022-10-13T13:29:41;8.13;;;4.57;;
6336;SDS011;3201;49.962;11.618;2022-10-13T13:32:10;15.63;;;4.97;;
6336;SDS011;3201;49.962;11.618;2022-10-13T13:34:36;20.73;;;5.40;;
6336;SDS011;3201;49.962;11.618;2022-10-13T13:37:02;8.77;;;4.40;;
6336;SDS011;3201;49.962;11.618;2022-10-13T13:39:27;13.43;;;5.13;;
6336;SDS011;3201;49.962;11.618;2022-10-13T13:41:53;14.70;;;5.30;;
6336;SDS011;3201;49.962;11.618;2022-10-13T13:44:18;13.27;;;5.47;;
6336;SDS011;3201;49.962;11.618;2022-10-13T13:46:43;13.87;;;5.40;;
6336;SDS011;3201;49.962;11.618;2022-10-13T13:49:10;9.80;;;4.63;;
6336;SDS011;3201;49.962;11.618;2022-10-13T13:51:35;12.23;;;5.47;;
6336;SDS011;3201;49.962;11.618;2022-10-13T13:54:01;15.67;;;5.40;;
6336;SDS011;3201;49.962;11.618;2022-10-13T13:56:27;11.47;;;5.47;;
6336;SDS011;3201;49.962;11.618;2022-10-13T13:58:52;10.13;;;4.73;;
6336;SDS011;3201;49.962;11.618;2022-10-13T14:01:17;17.13;;;5.83;;
6336;SDS011;3201;49.962;11.618;2022-10-13T14:03:43;16.87;;;5.50;;
6336;SDS011;3201;49.962;11.618;2022-10-13T14:06:15;11.50;;;4.63;;
6336;SDS011;3201;49.962;11.618;2022-10-13T14:08:41;13.60;;;6.00;;
6336;SDS011;3201;49.962;11.618;2022-10-13T14:11:07;12.27;;;4.77;;
6336;SDS011;3201;49.962;11.618;2022-10-13T14:13:33;9.10;;;5.97;;
6336;SDS011;3201;49.962;11.618;2022-10-13T14:15:59;20.73;;;5.77;;
6336;SDS011;3201;49.962;11.618;2022-10-13T14:18:25;13.30;;;6.27;;
6336;SDS011;3201;49.962;11.618;2022-10-13T14:20:51;18.50;;;6.50;;
6336;SDS011;3201;49.962;11.618;2022-10-13T14:23:16;17.53;;;6.47;;
6336;SDS011;3201;49.962;11.618;2022-10-13T14:25:42;23.63;;;7.53;;
6336;SDS011;3201;49.962;11.618;2022-10-13T14:28:07;25.37;;;6.47;;
6336;SDS011;3201;49.962;11.618;2022-10-13T14:30:33;16.70;;;6.90;;
6336;SDS011;3201;49.962;11.618;2022-10-13T14:32:58;26.60;;;7.67;;
6336;SDS011;3201;49.962;11.618;2022-10-13T14:35:24;16.80;;;7.20;;
6336;SDS011;3201;49.962;11.618;2022-10-13T14:37:50;16.50;;;7.43;;
6336;SDS011;3201;49.962;11.618;2022-10-13T14:40:15;16.40;;;8.30;;
6336;SDS011;3201;49.962;11.618;2022-10-13T14:42:41;26.37;;;10.47;;
6336;SDS011;3201;49.962;11.618;2022-10-13T14:45:06;18.70;;;9.43;;
6336;SDS011;3201;49.962;11.618;2022-10-13T14:47:32;17.53;;;9.07;;
6336;SDS011;3201;49.962;11.618;2022-10-13T14:49:58;18.37;;;8.67;;
6336;SDS011;3201;49.962;11.618;2022-10-13T14:52:25;18.60;;;9.33;;
6336;SDS011;3201;49.962;11.618;2022-10-13T14:54:50;15.00;;;8.67;;
6336;SDS011;3201;49.962;11.618;2022-10-13T14:57:16;24.93;;;10.17;;
6336;SDS011;3201;49.962;11.618;2022-10-13T14:59:41;22.60;;;9.53;;
6336;SDS011;3201;49.962;11.618;2022-10-13T15:02:08;21.73;;;9.27;;
6336;SDS011;3201;49.962;11.618;2022-10-13T15:04:34;23.43;;;9.60;;
6336;SDS011;3201;49.962;11.618;2022-10-13T15:06:59;21.83;;;9.60;;
6336;SDS011;3201;49.962;11.618;2022-10-13T15:09:25;17.67;;;8.60;;
6336;SDS011;3201;49.962;11.618;2022-10-13T15:11:50;17.80;;;9.83;;
6336;SDS011;3201;49.962;11.618;2022-10-13T15:14:15;14.70;;;9.20;;
6336;SDS011;3201;49.962;11.618;2022-10-13T15:16:41;18.70;;;9.50;;
6336;SDS011;3201;49.962;11.618;2022-10-13T15:19:06;17.17;;;9.23;;
6336;SDS011;3201;49.962;11.618;2022-10-13T15:21:32;18.13;;;10.73;;
6336;SDS011;3201;49.962;11.618;2022-10-13T15:23:57;20.93;;;9.97;;
6336;SDS011;3201;49.962;11.618;2022-10-13T15:26:23;22.37;;;10.03;;
6336;SDS011;3201;49.962;11.618;2022-10-13T15:28:49;16.70;;;10.77;;
6336;SDS011;3201;49.962;11.618;2022-10-13T15:31:16;24.57;;;9.97;;
6336;SDS011;3201;49.962;11.618;2022-10-13T15:33:42;20.73;;;10.60;;
6336;SDS011;3201;49.962;11.618;2022-10-13T15:36:10;17.07;;;9.93;;
6336;SDS011;3201;49.962;11.618;2022-10-13T15:38:35;18.73;;;9.90;;
6336;SDS011;3201;49.962;11.618;2022-10-13T15:41:01;13.37;;;9.40;;
6336;SDS011;3201;49.962;11.618;2022-10-13T15:43:28;19.60;;;9.77;;
6336;SDS011;3201;49.962;11.618;2022-10-13T15:45:54;14.40;;;9.17;;
6336;SDS011;3201;49.962;11.618;2022-10-13T15:48:21;13.63;;;8.80;;
6336;SDS011;3201;49.962;11.618;2022-10-13T15:50:46;18.10;;;10.27;;
6336;SDS011;3201;49.962;11.618;2022-10-13T15:53:12;24.90;;;9.50;;
6336;SDS011;3201;49.962;11.618;2022-10-13T15:55:37;15.40;;;9.17;;
6336;SDS011;3201;49.962;11.618;2022-10-13T15:58:04;14.47;;;9.03;;
6336;SDS011;3201;49.962;11.618;2022-10-13T16:00:29;15.00;;;9.07;;
6336;SDS011;3201;49.962;11.618;2022-10-13T16:02:55;15.20;;;8.87;;
6336;SDS011;3201;49.962;11.618;2022-10-13T16:05:20;21.80;;;8.90;;
6336;SDS011;3201;49.962;11.618;2022-10-13T16:07:46;14.13;;;8.50;;
6336;SDS011;3201;49.962;11.618;2022-10-13T16:10:11;15.20;;;9.07;;
6336;SDS011;3201;49.962;11.618;2022-10-13T16:12:38;15.43;;;8.20;;
6336;SDS011;3201;49.962;11.618;2022-10-13T16:15:04;12.70;;;8.33;;